Time;durP1;ratioP1;P1;durP2;ratioP2;P2;SDS_P1;SDS_P2;PMS_P1;PMS_P2;Temp;Humidity;BMP_temperature;BMP_pressure;BME280_temperature;BME280_humidity;BME280_pressure;Samples;Min_cycle;Max_cycle;Signal;HPM_P1;HPM_P2
2021/11/20 00:01:18;;;;;;;0.40;0.30;;;;;;;12.81;95.18;101847.44;5094918;28;20523;-69
2021/11/20 00:03:46;;;;;;;0.40;0.30;;;;;;;12.79;95.30;101848.81;5095111;28;20420;-69
2021/11/20 00:06:14;;;;;;;0.40;0.20;;;;;;;12.83;95.38;101853.38;5094711;28;20494;-70
2021/11/20 00:08:41;;;;;;;0.40;0.30;;;;;;;12.83;95.38;101853.38;5094743;28;20440;-69
2021/11/20 00:11:11;;;;;;;0.40;0.30;;;;;;;12.80;95.62;101845.00;5094721;28;20440;-69
2021/11/20 00:13:38;;;;;;;0.40;0.30;;;;;;;12.80;95.58;101851.25;5094328;28;20441;-69
2021/11/20 00:16:07;;;;;;;0.40;0.27;;;;;;;12.79;95.97;101862.41;5094262;28;20533;-69
2021/11/20 00:18:36;;;;;;;0.40;0.20;;;;;;;12.74;95.78;101857.00;5094374;28;20445;-69
2021/11/20 00:21:09;;;;;;;0.40;0.30;;;;;;;12.74;95.99;101854.28;5094256;28;20989;-69
2021/11/20 00:23:40;;;;;;;0.40;0.30;;;;;;;12.75;96.06;101848.59;5094550;28;20761;-69
2021/11/20 00:26:15;;;;;;;0.40;0.30;;;;;;;12.75;96.21;101845.88;5093976;28;20456;-69
2021/11/20 00:29:05;;;;;;;0.40;0.20;;;;;;;12.77;95.93;101851.81;5094448;28;20427;-69
2021/11/20 00:31:35;;;;;;;0.40;0.30;;;;;;;12.76;96.14;101850.19;5094314;28;20511;-69
2021/11/20 00:34:04;;;;;;;0.40;0.30;;;;;;;12.79;96.11;101846.94;5093946;28;20441;-69
2021/11/20 00:36:31;;;;;;;0.40;0.30;;;;;;;12.77;96.25;101840.94;5094025;28;20480;-69
2021/11/20 00:38:58;;;;;;;0.40;0.30;;;;;;;12.79;96.29;101844.19;5094078;28;20925;-69
2021/11/20 00:41:27;;;;;;;0.40;0.20;;;;;;;12.78;96.18;101844.47;5094053;28;20460;-69
2021/11/20 00:43:54;;;;;;;0.40;0.30;;;;;;;12.80;95.98;101845.81;5093720;28;20482;-70
2021/11/20 00:46:24;;;;;;;0.40;0.30;;;;;;;12.81;95.98;101847.44;5093871;28;20436;-70
2021/11/20 00:48:51;;;;;;;0.40;0.30;;;;;;;12.79;96.28;101848.81;5093939;28;20502;-69
2021/11/20 00:51:22;;;;;;;0.40;0.30;;;;;;;12.76;96.14;101836.59;5093552;28;20448;-69
2021/11/20 00:53:49;;;;;;;0.40;0.30;;;;;;;12.78;96.26;101834.41;5093801;28;20546;-69
2021/11/20 00:56:18;;;;;;;0.40;0.30;;;;;;;12.77;96.30;101840.94;5092857;28;20532;-69
2021/11/20 00:58:46;;;;;;;0.40;0.30;;;;;;;12.77;96.35;101837.41;5093694;28;20858;-70
2021/11/20 01:01:16;;;;;;;0.40;0.20;;;;;;;12.77;96.28;101840.94;5093642;28;20494;-69
2021/11/20 01:03:44;;;;;;;0.40;0.20;;;;;;;12.73;96.62;101848.03;5093332;28;20420;-70
2021/11/20 01:06:12;;;;;;;1.90;1.80;;;;;;;12.71;96.83;101844.00;5093513;28;20808;-70
2021/11/20 01:08:45;;;;;;;0.40;0.20;;;;;;;12.69;96.57;101844.25;5093241;28;20943;-69
2021/11/20 01:11:20;;;;;;;0.40;0.30;;;;;;;12.70;96.91;101851.31;5093603;28;20436;-69
2021/11/20 01:13:47;;;;;;;0.40;0.30;;;;;;;12.71;97.06;101844.81;5093497;28;20428;-69
2021/11/20 01:16:15;;;;;;;0.40;0.30;;;;;;;12.71;96.98;101855.69;5093052;28;20515;-69
2021/11/20 01:18:43;;;;;;;0.40;0.27;;;;;;;12.73;96.87;101850.75;5093530;28;20851;-69
2021/11/20 01:21:11;;;;;;;0.40;0.30;;;;;;;12.72;96.64;101851.06;5093488;28;20440;-69
2021/11/20 01:23:41;;;;;;;0.40;0.20;;;;;;;12.73;96.73;101848.03;5093432;28;20561;-70
2021/11/20 01:26:09;;;;;;;0.40;0.27;;;;;;;12.75;96.54;101854.03;5093229;28;20452;-70
2021/11/20 01:28:38;;;;;;;0.40;0.30;;;;;;;12.72;96.70;101851.06;5094425;28;20498;-70
2021/11/20 01:31:06;;;;;;;0.40;0.30;;;;;;;12.71;96.94;101852.97;5093038;28;20792;-69
2021/11/20 01:33:33;;;;;;;0.40;0.30;;;;;;;12.69;96.97;101860.56;5093289;28;20479;-70
2021/11/20 01:36:00;;;;;;;0.40;0.20;;;;;;;12.68;96.91;101858.16;5093487;28;20488;-70
2021/11/20 01:38:27;;;;;;;0.73;0.70;;;;;;;12.65;97.02;101854.09;5092745;28;20514;-69
2021/11/20 01:40:56;;;;;;;0.40;0.30;;;;;;;12.68;97.05;101858.97;5093300;28;20494;-70
2021/11/20 01:43:23;;;;;;;0.40;0.30;;;;;;;12.72;96.89;101854.59;5093223;28;20436;-70
2021/11/20 01:45:54;;;;;;;0.40;0.30;;;;;;;12.71;96.67;101852.16;5093217;28;20498;-69
2021/11/20 01:48:38;;;;;;;0.40;0.30;;;;;;;12.72;96.83;101846.44;5092837;28;20460;-70
2021/11/20 01:51:10;;;;;;;0.40;0.27;;;;;;;12.70;96.72;101843.16;5093207;28;20498;-70
2021/11/20 01:53:42;;;;;;;0.40;0.30;;;;;;;12.68;97.05;101850.00;5092878;28;20482;-69
2021/11/20 01:56:15;;;;;;;0.40;0.30;;;;;;;12.66;97.17;101844.00;5093029;28;20464;-70
2021/11/20 01:58:46;;;;;;;0.40;0.30;;;;;;;12.67;97.04;101845.66;5092819;28;20950;-70
2021/11/20 02:01:18;;;;;;;0.40;0.30;;;;;;;12.64;97.05;101847.03;5093038;28;20498;-69
2021/11/20 02:03:59;;;;;;;0.40;0.20;;;;;;;12.62;97.13;101852.75;5093222;28;20446;-69
2021/11/20 02:06:30;;;;;;;2.20;1.33;;;;;;;12.62;97.09;101843.78;5092867;28;20957;-70
2021/11/20 02:09:01;;;;;;;0.40;0.20;;;;;;;12.57;97.53;101851.97;5095627;28;20428;-70
2021/11/20 02:11:33;;;;;;;0.40;0.30;;;;;;;12.63;97.34;101853.56;5097213;28;20424;-70
2021/11/20 02:14:00;;;;;;;0.40;0.30;;;;;;;12.63;97.25;101850.84;5096941;28;20475;-70
2021/11/20 02:16:30;;;;;;;0.40;0.30;;;;;;;12.62;97.19;101847.31;5096380;28;21058;-70
2021/11/20 02:19:00;;;;;;;0.40;0.30;;;;;;;12.58;97.17;101842.75;5096533;28;21003;-70
2021/11/20 02:21:34;;;;;;;0.40;0.30;;;;;;;12.60;97.28;101844.06;5096812;28;20482;-69
2021/11/20 02:24:00;;;;;;;0.40;0.20;;;;;;;12.63;97.32;101846.22;5096452;28;20489;-70
2021/11/20 02:26:27;;;;;;;0.40;0.30;;;;;;;12.64;97.32;101844.31;5096302;28;20471;-70
2021/11/20 02:28:57;;;;;;;0.40;0.30;;;;;;;12.56;97.72;101845.72;5096667;28;20452;-69
2021/11/20 02:31:26;;;;;;;0.40;0.30;;;;;;;12.60;97.16;101844.06;5096587;28;20424;-69
2021/11/20 02:33:53;;;;;;;0.40;0.30;;;;;;;12.58;97.26;101831.88;5096504;28;20493;-69
2021/11/20 02:36:22;;;;;;;0.40;0.20;;;;;;;12.59;97.32;101828.84;5096324;28;20534;-69
2021/11/20 02:38:56;;;;;;;0.40;0.30;;;;;;;12.59;97.52;101831.56;5096512;28;20490;-70
2021/11/20 02:41:25;;;;;;;0.40;0.30;;;;;;;12.60;97.58;101835.09;5096149;28;20411;-69
2021/11/20 02:43:54;;;;;;;0.40;0.20;;;;;;;12.57;97.82;101833.78;5096464;28;20445;-69
2021/11/20 02:46:22;;;;;;;0.40;0.30;;;;;;;12.56;97.99;101825.88;5096185;28;20494;-69
2021/11/20 02:48:52;;;;;;;0.40;0.20;;;;;;;12.55;98.02;101827.78;5095859;28;20428;-69
2021/11/20 02:51:21;;;;;;;0.40;0.30;;;;;;;12.53;98.04;101829.19;5096106;28;20475;-70
2021/11/20 02:53:50;;;;;;;0.40;0.20;;;;;;;12.49;98.39;101830.84;5095875;28;20501;-69
2021/11/20 02:56:20;;;;;;;0.40;0.20;;;;;;;12.46;99.11;101821.34;5095605;28;20869;-69
2021/11/20 02:58:47;;;;;;;0.40;0.30;;;;;;;12.48;99.36;101826.47;5095765;28;20926;-70
2021/11/20 03:01:18;;;;;;;0.40;0.30;;;;;;;12.41;99.81;101831.44;5095980;28;20437;-69
2021/11/20 03:03:45;;;;;;;0.40;0.30;;;;;;;12.42;100.00;101827.63;5095927;28;20440;-70
2021/11/20 03:06:14;;;;;;;0.40;0.30;;;;;;;12.42;100.00;101827.63;5095464;28;20428;-70
2021/11/20 03:08:41;;;;;;;0.50;0.47;;;;;;;12.35;100.00;101838.78;5095849;28;20501;-69
2021/11/20 03:11:08;;;;;;;0.40;0.30;;;;;;;12.29;100.00;101835.31;5095490;28;20444;-70
2021/11/20 03:13:35;;;;;;;0.40;0.30;;;;;;;12.24;100.00;101827.19;5095762;28;20444;-69
2021/11/20 03:16:02;;;;;;;0.40;0.30;;;;;;;12.21;100.00;101835.91;5095639;28;20476;-69
2021/11/20 03:18:29;;;;;;;0.40;0.30;;;;;;;12.14;100.00;101827.28;5095368;28;20850;-69
2021/11/20 03:20:55;;;;;;;0.40;0.20;;;;;;;12.11;100.00;101816.97;5094511;28;20502;-69
2021/11/20 03:23:26;;;;;;;0.40;0.30;;;;;;;12.09;100.00;101819.16;5095188;28;20444;-69
2021/11/20 03:25:53;;;;;;;0.40;0.20;;;;;;;12.05;100.00;101823.53;5095338;28;20488;-69
2021/11/20 03:28:20;;;;;;;0.40;0.30;;;;;;;11.96;100.00;101819.78;5095076;28;20461;-69
2021/11/20 03:30:47;;;;;;;0.40;0.30;;;;;;;11.96;100.00;101817.88;5095091;28;20497;-69
2021/11/20 03:33:14;;;;;;;0.40;0.30;;;;;;;11.96;100.00;101817.88;5095311;28;20440;-69
2021/11/20 03:35:43;;;;;;;0.40;0.30;;;;;;;11.92;100.00;101816.78;5095367;28;20470;-69
2021/11/20 03:38:10;;;;;;;0.40;0.30;;;;;;;11.91;100.00;101808.91;5095190;28;20479;-69
2021/11/20 03:40:38;;;;;;;0.40;0.30;;;;;;;11.84;100.00;101809.22;5094768;28;20557;-69
2021/11/20 03:43:06;;;;;;;0.40;0.30;;;;;;;11.80;100.00;101805.41;5095185;28;20444;-69
2021/11/20 03:45:35;;;;;;;0.40;0.30;;;;;;;11.80;100.00;101803.50;5095121;28;20502;-69
2021/11/20 03:48:03;;;;;;;0.40;0.30;;;;;;;11.80;100.00;101802.69;5095028;28;20497;-69
2021/11/20 03:50:30;;;;;;;0.40;0.30;;;;;;;11.78;100.00;101803.00;5094705;28;20930;-69
2021/11/20 03:52:58;;;;;;;0.40;0.30;;;;;;;11.77;100.00;101793.19;5095011;28;20433;-69
2021/11/20 03:55:27;;;;;;;0.40;0.30;;;;;;;11.79;100.00;101788.31;5094878;28;20581;-69
2021/11/20 03:57:55;;;;;;;0.40;0.20;;;;;;;11.79;100.00;101791.03;5094399;28;20533;-69
2021/11/20 04:00:25;;;;;;;0.40;0.23;;;;;;;11.78;100.00;101788.63;5094527;28;20490;-69
2021/11/20 04:02:52;;;;;;;0.40;0.30;;;;;;;11.77;100.00;101785.06;5094503;28;20950;-69
2021/11/20 04:05:20;;;;;;;0.40;0.30;;;;;;;11.78;100.00;101777.75;5094698;28;20448;-69
2021/11/20 04:07:47;;;;;;;0.40;0.20;;;;;;;11.81;100.00;101779.88;5094440;28;20826;-69
2021/11/20 04:10:15;;;;;;;0.40;0.20;;;;;;;11.82;100.00;101774.22;5094339;28;20934;-69
2021/11/20 04:12:42;;;;;;;0.40;0.30;;;;;;;11.82;100.00;101768.81;5094654;28;20519;-70
2021/11/20 04:15:13;;;;;;;0.40;0.20;;;;;;;11.85;100.00;101773.66;5094631;28;20440;-69
2021/11/20 04:17:40;;;;;;;0.40;0.23;;;;;;;11.84;100.00;101769.31;5094081;28;21066;-70
2021/11/20 04:20:11;;;;;;;0.40;0.30;;;;;;;11.84;100.00;101763.09;5094270;28;20461;-70
2021/11/20 04:22:37;;;;;;;0.40;0.30;;;;;;;11.88;100.00;101776.91;5094700;28;20437;-70
2021/11/20 04:25:07;;;;;;;0.40;0.30;;;;;;;11.82;100.00;101774.22;5094447;28;20444;-70
2021/11/20 04:27:34;;;;;;;0.40;0.30;;;;;;;11.79;100.00;101769.31;5094209;28;20453;-70
2021/11/20 04:30:00;;;;;;;1.90;1.80;;;;;;;11.78;100.00;101773.13;5094352;28;20448;-70
2021/11/20 04:32:28;;;;;;;0.40;0.30;;;;;;;11.78;100.00;101769.59;5093245;28;20432;-70
2021/11/20 04:34:55;;;;;;;0.40;0.30;;;;;;;11.78;100.00;101765.00;5094077;28;20493;-69
2021/11/20 04:37:22;;;;;;;0.40;0.20;;;;;;;11.79;100.00;101766.59;5093981;28;20574;-70
2021/11/20 04:39:49;;;;;;;0.87;0.87;;;;;;;11.79;100.00;101769.31;5094008;28;20494;-70
2021/11/20 04:42:16;;;;;;;0.40;0.30;;;;;;;11.81;100.00;101777.97;5094122;28;20804;-70
2021/11/20 04:44:43;;;;;;;0.40;0.30;;;;;;;11.82;100.00;101776.06;5094005;28;20433;-70
2021/11/20 04:47:10;;;;;;;0.40;0.20;;;;;;;11.83;100.00;101770.41;5093925;28;20514;-70
2021/11/20 04:49:39;;;;;;;0.40;0.30;;;;;;;11.88;100.00;101790.50;5093927;28;20436;-70
2021/11/20 04:52:07;;;;;;;0.40;0.30;;;;;;;11.84;100.00;101773.94;5093894;28;20448;-70
2021/11/20 04:54:34;;;;;;;0.40;0.30;;;;;;;11.81;100.00;101769.03;5093760;28;20476;-70
2021/11/20 04:57:00;;;;;;;0.40;0.30;;;;;;;11.88;100.00;101772.28;5093344;28;20997;-70
2021/11/20 04:59:27;;;;;;;0.40;0.30;;;;;;;11.92;100.00;101764.41;5093414;28;20452;-70
2021/11/20 05:01:54;;;;;;;0.40;0.20;;;;;;;11.90;100.00;101777.44;5093417;28;20930;-69
2021/11/20 05:04:21;;;;;;;0.40;0.27;;;;;;;11.82;100.00;101766.09;5093622;28;20468;-70
2021/11/20 05:06:49;;;;;;;0.40;0.30;;;;;;;11.89;100.00;101773.91;5093155;28;20514;-70
2021/11/20 05:09:17;;;;;;;0.40;0.30;;;;;;;11.93;100.00;101780.41;5093203;28;20486;-70
2021/11/20 05:11:44;;;;;;;0.40;0.30;;;;;;;11.90;100.00;101777.44;5093516;28;20436;-70
2021/11/20 05:14:11;;;;;;;0.40;0.30;;;;;;;11.95;100.00;101780.91;5093604;28;20494;-70
2021/11/20 05:16:39;;;;;;;0.40;0.30;;;;;;;11.96;100.00;101782.56;5093354;28;20512;-70
2021/11/20 05:19:06;;;;;;;0.40;0.20;;;;;;;11.92;100.00;101776.06;5093126;28;20914;-70
2021/11/20 05:21:33;;;;;;;0.40;0.20;;;;;;;11.98;100.00;101779.56;5093061;28;20490;-70
2021/11/20 05:24:01;;;;;;;0.40;0.30;;;;;;;11.99;100.00;101776.56;5093078;28;20472;-70
2021/11/20 05:26:28;;;;;;;0.40;0.30;;;;;;;11.99;100.00;101784.69;5092997;28;21001;-70
2021/11/20 05:29:02;;;;;;;0.40;0.30;;;;;;;12.00;100.00;101780.09;5092802;28;20456;-70
2021/11/20 05:31:28;;;;;;;0.40;0.20;;;;;;;12.00;100.00;101774.69;5093252;28;20432;-70
2021/11/20 05:33:55;;;;;;;0.40;0.20;;;;;;;12.02;100.00;101777.91;5093228;28;20506;-69
2021/11/20 05:36:26;;;;;;;0.40;0.20;;;;;;;11.99;100.00;101773.03;5093106;28;20561;-72
2021/11/20 05:38:54;;;;;;;0.40;0.30;;;;;;;11.97;100.00;101783.38;5093412;28;20471;-69
2021/11/20 05:41:22;;;;;;;0.40;0.30;;;;;;;11.97;100.00;101773.31;5093156;28;20490;-71
2021/11/20 05:43:48;;;;;;;0.40;0.30;;;;;;;12.01;100.00;101773.56;5093001;28;20444;-70
2021/11/20 05:46:20;;;;;;;0.40;0.30;;;;;;;12.02;100.00;101780.63;5093089;28;20797;-69
2021/11/20 05:48:47;;;;;;;0.40;0.30;;;;;;;12.03;100.00;101772.19;5093152;28;20429;-69
2021/11/20 05:51:14;;;;;;;0.40;0.30;;;;;;;11.98;100.00;101768.69;5093118;28;20472;-69
2021/11/20 05:53:41;;;;;;;0.40;0.20;;;;;;;11.96;100.00;101776.31;5093068;28;20490;-69
2021/11/20 05:56:09;;;;;;;0.40;0.30;;;;;;;11.97;100.00;101788.81;5092940;28;20870;-69
2021/11/20 05:58:37;;;;;;;0.40;0.30;;;;;;;11.98;100.00;101774.13;5092958;28;20535;-69
2021/11/20 06:01:07;;;;;;;0.40;0.30;;;;;;;11.90;100.00;101767.38;5092968;28;20494;-69
2021/11/20 06:03:34;;;;;;;0.40;0.30;;;;;;;11.92;100.00;101772.53;5093063;28;20455;-69
2021/11/20 06:06:01;;;;;;;0.40;0.30;;;;;;;11.91;100.00;101765.47;5092677;28;20444;-69
2021/11/20 06:08:28;;;;;;;0.40;0.30;;;;;;;11.95;100.00;101774.69;5092537;28;20989;-69
2021/11/20 06:10:57;;;;;;;0.40;0.30;;;;;;;11.95;100.00;101770.06;5092925;28;20441;-69
2021/11/20 06:13:24;;;;;;;0.40;0.30;;;;;;;11.93;100.00;101771.44;5092849;28;20467;-69
2021/11/20 06:15:53;;;;;;;0.40;0.30;;;;;;;11.97;100.00;101772.50;5092572;28;20933;-69
2021/11/20 06:18:21;;;;;;;0.40;0.30;;;;;;;11.98;100.00;101783.09;5092682;28;20480;-69
2021/11/20 06:20:50;;;;;;;0.40;0.30;;;;;;;11.97;100.00;101773.31;5092855;28;20486;-68
2021/11/20 06:23:18;;;;;;;0.40;0.30;;;;;;;11.97;100.00;101775.22;5092843;28;20482;-69
2021/11/20 06:25:45;;;;;;;0.40;0.30;;;;;;;11.95;100.00;101785.53;5092642;28;20452;-69
2021/11/20 06:28:12;;;;;;;0.50;0.50;;;;;;;11.91;100.00;101781.75;5092730;28;20998;-69
2021/11/20 06:30:38;;;;;;;0.40;0.30;;;;;;;11.92;100.00;101786.13;5092762;28;20510;-69
2021/11/20 06:33:07;;;;;;;0.40;0.20;;;;;;;11.85;100.00;101786.41;5092386;28;20444;-69
2021/11/20 06:35:36;;;;;;;0.40;0.20;;;;;;;11.85;100.00;101773.66;5092940;28;20444;-69
2021/11/20 06:38:03;;;;;;;0.40;0.30;;;;;;;11.85;100.00;101775.56;5092592;28;20477;-69
2021/11/20 06:40:32;;;;;;;4.43;4.00;;;;;;;11.81;100.00;101782.59;5092622;28;20452;-70
2021/11/20 06:43:00;;;;;;;0.40;0.30;;;;;;;11.72;100.00;101787.81;5092302;28;20444;-70
2021/11/20 06:45:30;;;;;;;0.40;0.30;;;;;;;11.70;100.00;101787.28;5092579;28;20530;-70
2021/11/20 06:47:57;;;;;;;0.40;0.20;;;;;;;11.62;100.00;101788.66;5092154;28;20464;-70
2021/11/20 06:50:26;;;;;;;0.40;0.20;;;;;;;11.63;100.00;101794.91;5092224;28;20811;-70
2021/11/20 06:52:53;;;;;;;0.40;0.30;;;;;;;11.63;100.00;101800.34;5092223;28;21016;-70
2021/11/20 06:55:21;;;;;;;0.40;0.30;;;;;;;11.65;100.00;101802.78;5094153;28;20490;-70
2021/11/20 06:57:51;;;;;;;0.40;0.30;;;;;;;11.62;100.00;101809.56;5095966;28;20524;-70
2021/11/20 07:00:28;;;;;;;0.40;0.30;;;;;;;11.61;100.00;101803.34;5095694;28;20421;-70
2021/11/20 07:02:59;;;;;;;0.40;0.20;;;;;;;11.62;100.00;101809.56;5095989;28;20476;-70
2021/11/20 07:05:28;;;;;;;0.40;0.30;;;;;;;11.60;100.00;101811.75;5095614;28;20488;-70
2021/11/20 07:07:56;;;;;;;0.40;0.27;;;;;;;11.61;100.00;101807.94;5095522;28;20487;-70
2021/11/20 07:10:23;;;;;;;0.40;0.30;;;;;;;11.62;100.00;101804.16;5095854;28;20494;-70
2021/11/20 07:12:50;;;;;;;0.40;0.30;;;;;;;11.58;100.00;101808.50;5095757;28;20448;-70
2021/11/20 07:15:17;;;;;;;0.40;0.30;;;;;;;11.54;100.00;101810.13;5095709;28;20490;-70
2021/11/20 07:17:44;;;;;;;0.40;0.30;;;;;;;11.60;100.00;101811.75;5095540;28;20537;-70
2021/11/20 07:20:12;;;;;;;0.40;0.30;;;;;;;11.54;100.00;101810.13;5095743;28;20441;-70
2021/11/20 07:22:41;;;;;;;0.40;0.20;;;;;;;11.57;100.00;101815.03;5095609;28;20441;-70
2021/11/20 07:25:08;;;;;;;0.40;0.30;;;;;;;11.55;100.00;101814.47;5095239;28;20868;-70
2021/11/20 07:27:36;;;;;;;0.40;0.30;;;;;;;11.56;100.00;101816.13;5095417;28;20464;-70
2021/11/20 07:30:04;;;;;;;0.40;0.30;;;;;;;11.49;100.00;101808.25;5096517;28;20506;-71
2021/11/20 07:32:30;;;;;;;0.40;0.30;;;;;;;11.52;100.00;101810.44;5095303;28;20934;-71
2021/11/20 07:34:57;;;;;;;0.40;0.30;;;;;;;11.43;100.00;101811.28;5095354;28;20448;-70
2021/11/20 07:37:25;;;;;;;0.40;0.30;;;;;;;11.40;100.00;101806.41;5095080;28;20488;-70
2021/11/20 07:39:54;;;;;;;0.40;0.30;;;;;;;11.45;100.00;101801.75;5095269;28;20490;-70
2021/11/20 07:42:21;;;;;;;0.40;0.30;;;;;;;11.45;100.00;101795.53;5095238;28;20498;-70
2021/11/20 07:44:49;;;;;;;0.40;0.30;;;;;;;11.37;100.00;101794.19;5095201;28;20432;-70
2021/11/20 07:47:16;;;;;;;0.40;0.40;;;;;;;11.39;100.00;101780.38;5094711;28;20539;-70
2021/11/20 07:49:43;;;;;;;0.40;0.20;;;;;;;11.41;100.00;101781.69;5095091;28;20444;-70
2021/11/20 07:52:11;;;;;;;0.40;0.20;;;;;;;11.40;100.00;101776.56;5095032;28;20440;-71
2021/11/20 07:54:38;;;;;;;0.40;0.30;;;;;;;11.37;100.00;101773.28;5094939;28;20532;-70
2021/11/20 07:57:07;;;;;;;0.40;0.30;;;;;;;11.37;100.00;101778.72;5094580;28;20517;-71
2021/11/20 07:59:34;;;;;;;0.40;0.20;;;;;;;11.35;100.00;101772.78;5095043;28;20444;-71
2021/11/20 08:02:01;;;;;;;0.40;0.27;;;;;;;11.40;100.00;101763.81;5094851;28;20509;-70
2021/11/20 08:04:28;;;;;;;0.40;0.30;;;;;;;11.41;100.00;101768.13;5094848;28;20429;-69
2021/11/20 08:06:55;;;;;;;0.40;0.30;;;;;;;11.45;100.00;101754.81;5094407;28;20551;-69
2021/11/20 08:09:21;;;;;;;0.40;0.30;;;;;;;11.48;100.00;101752.38;5094709;28;20494;-69
2021/11/20 08:11:48;;;;;;;0.40;0.20;;;;;;;11.49;100.00;101758.59;5094385;28;20480;-69
2021/11/20 08:14:17;;;;;;;0.40;0.30;;;;;;;11.50;100.00;101752.09;5094601;28;20444;-69
2021/11/20 08:16:44;;;;;;;0.40;0.30;;;;;;;11.57;100.00;101749.91;5094499;28;20460;-69
2021/11/20 08:19:11;;;;;;;0.40;0.20;;;;;;;11.56;100.00;101751.00;5094142;28;20476;-69
2021/11/20 08:21:38;;;;;;;0.40;0.30;;;;;;;11.56;100.00;101737.44;5094164;28;21008;-69
2021/11/20 08:24:05;;;;;;;0.40;0.27;;;;;;;11.57;100.00;101741.75;5094431;28;20498;-69
2021/11/20 08:26:36;;;;;;;0.40;0.30;;;;;;;11.60;100.00;101730.34;5094204;28;20537;-69
2021/11/20 08:29:05;;;;;;;0.40;0.20;;;;;;;11.68;100.00;101724.31;5094331;28;20506;-69
2021/11/20 08:31:33;;;;;;;0.40;0.30;;;;;;;11.69;100.00;101717.00;5093925;28;20440;-69
2021/11/20 08:34:00;;;;;;;0.40;0.30;;;;;;;11.74;100.00;101723.22;5093842;28;20854;-69
2021/11/20 08:36:27;;;;;;;0.40;0.20;;;;;;;11.76;100.00;101717.50;5093773;28;20514;-71
2021/11/20 08:38:54;;;;;;;0.40;0.20;;;;;;;11.78;100.00;101718.84;5094046;28;20516;-71
2021/11/20 08:41:21;;;;;;;0.40;0.20;;;;;;;11.82;100.00;101727.22;5094026;28;20440;-69
2021/11/20 08:43:48;;;;;;;0.40;0.30;;;;;;;11.84;100.00;101715.03;5093778;28;20498;-70
2021/11/20 08:46:14;;;;;;;0.40;0.20;;;;;;;11.88;100.00;101723.41;5093562;28;21011;-70
2021/11/20 08:48:43;;;;;;;0.40;0.30;;;;;;;11.92;100.00;101721.75;5094065;28;20494;-71
2021/11/20 08:51:13;;;;;;;0.40;0.20;;;;;;;11.97;100.00;101729.06;5093531;28;20506;-68
2021/11/20 08:53:41;;;;;;;0.40;0.20;;;;;;;12.00;100.00;101721.19;5093432;28;20969;-69
2021/11/20 08:56:08;;;;;;;0.40;0.30;;;;;;;12.01;100.00;101724.69;5093738;28;20494;-68
2021/11/20 08:58:35;;;;;;;0.40;0.30;;;;;;;12.03;100.00;101722.50;5093742;28;20480;-68
2021/11/20 09:01:06;;;;;;;0.40;0.20;;;;;;;12.07;100.00;101721.66;5093699;28;20476;-68
2021/11/20 09:03:37;;;;;;;0.40;0.20;;;;;;;12.11;100.00;101716.47;5093414;28;21009;-68
2021/11/20 09:06:09;;;;;;;0.40;0.30;;;;;;;12.13;100.00;101706.16;5093711;28;20491;-69
2021/11/20 09:08:41;;;;;;;0.40;0.30;;;;;;;12.18;100.00;101703.38;5093388;28;20452;-68
2021/11/20 09:11:12;;;;;;;0.40;0.30;;;;;;;12.25;100.00;101705.75;5093306;28;20421;-68
2021/11/20 09:13:43;;;;;;;0.40;0.20;;;;;;;12.25;100.00;101698.41;5093577;28;20420;-68
2021/11/20 09:16:13;;;;;;;1.00;1.00;;;;;;;12.29;100.00;101704.09;5093500;28;20429;-68
2021/11/20 09:18:40;;;;;;;0.40;0.30;;;;;;;12.32;100.00;101703.53;5092770;28;20480;-69
2021/11/20 09:21:12;;;;;;;0.40;0.30;;;;;;;12.35;100.00;101700.22;5093141;28;20926;-68
2021/11/20 09:23:39;;;;;;;0.40;0.20;;;;;;;12.34;100.00;101699.41;5093470;28;20486;-68
2021/11/20 09:26:06;;;;;;;0.40;0.30;;;;;;;12.35;100.00;101697.50;5093120;28;20452;-69
2021/11/20 09:28:35;;;;;;;0.40;0.30;;;;;;;12.34;100.00;101693.19;5093341;28;20490;-69
2021/11/20 09:31:06;;;;;;;0.40;0.20;;;;;;;12.37;100.00;101696.16;5093289;28;20440;-68
2021/11/20 09:33:33;;;;;;;0.40;0.30;;;;;;;12.36;100.00;101694.53;5093310;28;20432;-68
2021/11/20 09:36:00;;;;;;;0.40;0.20;;;;;;;12.35;100.00;101687.47;5093229;28;20437;-68
2021/11/20 09:38:28;;;;;;;0.40;0.20;;;;;;;12.36;100.00;101689.09;5092896;28;20488;-69
2021/11/20 09:40:58;;;;;;;0.40;0.30;;;;;;;12.37;99.92;101689.91;5093216;28;20946;-69
2021/11/20 09:43:26;;;;;;;0.40;0.30;;;;;;;12.45;99.72;101697.44;5093175;28;20862;-68
2021/11/20 09:45:58;;;;;;;0.40;0.30;;;;;;;12.50;98.89;101689.25;5093013;28;20926;-69
2021/11/20 09:48:30;;;;;;;0.40;0.30;;;;;;;12.56;99.10;101696.22;5092744;28;20918;-69
2021/11/20 09:51:01;;;;;;;0.40;0.30;;;;;;;12.53;98.97;101690.59;5092893;28;20421;-70
2021/11/20 09:53:29;;;;;;;0.40;0.30;;;;;;;12.55;98.46;101691.91;5092834;28;20421;-68
2021/11/20 09:56:06;;;;;;;0.40;0.20;;;;;;;12.59;97.44;101687.50;5093036;28;20490;-70
2021/11/20 09:58:35;;;;;;;0.40;0.30;;;;;;;12.60;97.05;101685.59;5092678;28;20890;-70
2021/11/20 10:01:20;;;;;;;0.40;0.20;;;;;;;12.69;97.32;101680.34;5093229;28;20502;-70
2021/11/20 10:03:50;;;;;;;0.40;0.20;;;;;;;12.72;96.46;101686.03;5093092;28;20482;-70
2021/11/20 10:06:29;;;;;;;0.40;0.30;;;;;;;12.73;96.31;101676.75;5092579;28;20838;-70
2021/11/20 10:09:10;;;;;;;0.40;0.30;;;;;;;12.75;95.91;101673.75;5093024;28;20450;-70
2021/11/20 10:11:40;;;;;;;0.40;0.30;;;;;;;12.78;94.85;101671.25;5092688;28;20425;-70
2021/11/20 10:14:11;;;;;;;0.40;0.27;;;;;;;12.76;94.78;101667.22;5092879;28;20502;-70
2021/11/20 10:16:47;;;;;;;0.40;0.30;;;;;;;12.79;94.93;101670.19;5093270;28;20456;-70
2021/11/20 10:19:25;;;;;;;0.40;0.27;;;;;;;12.81;94.73;101662.53;5092583;28;21079;-70
2021/11/20 10:22:20;;;;;;;0.40;0.30;;;;;;;12.82;94.53;101661.44;5092848;28;20769;-70
2021/11/20 10:25:14;;;;;;;0.40;0.20;;;;;;;12.85;94.65;101668.22;5092814;28;20517;-70
2021/11/20 10:27:57;;;;;;;0.40;0.30;;;;;;;12.83;94.42;101670.41;5092336;28;20471;-70
2021/11/20 10:30:29;;;;;;;0.40;0.30;;;;;;;12.81;94.78;101661.72;5096212;28;20778;-70
2021/11/20 10:32:59;;;;;;;0.40;0.30;;;;;;;12.81;94.82;101653.56;5097000;28;20424;-70
2021/11/20 10:35:29;;;;;;;0.40;0.30;;;;;;;12.79;95.11;101653.88;5096635;28;20444;-69
2021/11/20 10:38:05;;;;;;;0.40;0.30;;;;;;;12.80;94.86;101644.63;5096529;28;20464;-70
2021/11/20 10:40:39;;;;;;;0.40;0.20;;;;;;;12.88;94.50;101632.25;5096288;28;20428;-71
2021/11/20 10:43:13;;;;;;;0.40;0.30;;;;;;;12.92;94.62;101638.75;5096104;28;20420;-70
2021/11/20 10:45:46;;;;;;;0.40;0.30;;;;;;;12.92;94.42;101636.03;5096282;28;20506;-70
2021/11/20 10:48:28;;;;;;;0.40;0.30;;;;;;;12.93;94.61;101634.16;5096372;28;20527;-70
2021/11/20 10:51:12;;;;;;;0.40;0.30;;;;;;;12.90;94.24;101629.28;5096143;28;20429;-71
2021/11/20 10:54:09;;;;;;;0.40;0.30;;;;;;;12.92;93.99;101624.34;5096602;28;20474;-70
2021/11/20 10:56:48;;;;;;;0.40;0.30;;;;;;;12.92;94.24;101625.16;5036760;28;20530;-72
2021/11/20 10:59:28;;;;;;;0.40;0.20;;;;;;;12.88;94.23;101616.78;5096420;28;20533;-72
2021/11/20 11:02:31;;;;;;;0.40;0.30;;;;;;;12.87;94.20;101612.44;5096200;28;20455;-72
2021/11/20 11:05:19;;;;;;;0.40;0.20;;;;;;;12.96;94.37;101604.44;5082156;28;20509;-72
2021/11/20 11:07:59;;;;;;;0.40;0.30;;;;;;;13.00;94.10;101610.91;5096045;28;20463;-72
2021/11/20 11:10:33;;;;;;;0.40;0.30;;;;;;;12.98;93.99;101607.69;5095782;28;20470;-73
2021/11/20 11:13:05;;;;;;;0.40;0.20;;;;;;;13.02;94.20;101597.84;5095961;28;20416;-73
2021/11/20 11:15:46;;;;;;;0.40;0.30;;;;;;;12.93;93.87;101590.63;5095913;28;20482;-72
2021/11/20 11:18:32;;;;;;;0.40;0.30;;;;;;;12.97;94.14;101583.47;5095858;28;20521;-73
2021/11/20 11:21:41;;;;;;;0.40;0.30;;;;;;;12.90;94.14;101583.84;5095613;28;20421;-73
2021/11/20 11:24:39;;;;;;;0.40;0.30;;;;;;;12.93;94.37;101582.47;5075054;28;20448;-71
2021/11/20 11:27:12;;;;;;;0.40;0.20;;;;;;;12.84;94.61;101577.69;5095603;28;20518;-73
2021/11/20 11:29:47;;;;;;;0.40;0.30;;;;;;;12.86;94.59;101570.03;5095242;28;20420;-72
2021/11/20 11:32:15;;;;;;;0.40;0.23;;;;;;;12.83;94.56;101569.78;5095163;28;20511;-71